Terminal Aerodrome Forecast
Issued by NWS

Home | Current Version | Previous Version | Graphics & Text | Print | Product List | Glossary On
Versions: 1 2 3 4 5 6 7 8 9 10 11 12 13 14 15 16 17 18 19 20 21
000
FTUS43 KICT 202343
TAFCNU
TAF
KCNU 202343Z 2100/2124 08007KT P6SM SCT150
     FM210800 09009KT P6SM BKN012
     FM211100 10007KT 2SM -DZ OVC004
     FM211500 12009KT P6SM OVC007=

USA.gov is the U.S. government's official web portal to all federal, state and local government web resources and services.